sensor_id;sensor_type;location;lat;lon;timestamp;P1;durP1;ratioP1;P2;durP2;ratioP2
74855;SDS011;63407;53.018;8.690;2022-09-24T04:02:40;0.82;;;0.80;;
74855;SDS011;63407;53.018;8.690;2022-09-24T04:05:07;0.52;;;0.52;;
74855;SDS011;63407;53.018;8.690;2022-09-24T04:07:32;1.67;;;0.65;;
74855;SDS011;63407;53.018;8.690;2022-09-24T04:09:58;1.17;;;0.63;;
74855;SDS011;63407;53.018;8.690;2022-09-24T04:12:23;1.08;;;0.65;;
74855;SDS011;63407;53.018;8.690;2022-09-24T04:14:49;0.82;;;0.80;;
74855;SDS011;63407;53.018;8.690;2022-09-24T04:17:14;0.80;;;0.60;;
74855;SDS011;63407;53.018;8.690;2022-09-24T04:19:41;0.80;;;0.80;;
74855;SDS011;63407;53.018;8.690;2022-09-24T04:22:08;1.23;;;0.82;;
74855;SDS011;63407;53.018;8.690;2022-09-24T04:24:33;0.65;;;0.60;;
74855;SDS011;63407;53.018;8.690;2022-09-24T04:26:58;0.73;;;0.70;;
74855;SDS011;63407;53.018;8.690;2022-09-24T04:29:24;0.73;;;0.70;;
74855;SDS011;63407;53.018;8.690;2022-09-24T04:31:49;0.55;;;0.55;;
74855;SDS011;63407;53.018;8.690;2022-09-24T04:34:15;0.57;;;0.50;;
74855;SDS011;63407;53.018;8.690;2022-09-24T04:36:41;1.08;;;0.68;;
74855;SDS011;63407;53.018;8.690;2022-09-24T04:39:07;1.52;;;0.60;;
74855;SDS011;63407;53.018;8.690;2022-09-24T04:41:33;0.52;;;0.52;;
74855;SDS011;63407;53.018;8.690;2022-09-24T04:43:59;0.55;;;0.55;;
74855;SDS011;63407;53.018;8.690;2022-09-24T04:46:24;0.90;;;0.63;;
74855;SDS011;63407;53.018;8.690;2022-09-24T04:48:50;0.70;;;0.70;;
74855;SDS011;63407;53.018;8.690;2022-09-24T04:51:15;1.00;;;0.90;;
74855;SDS011;63407;53.018;8.690;2022-09-24T04:53:43;1.00;;;0.60;;
74855;SDS011;63407;53.018;8.690;2022-09-24T04:56:11;2.10;;;0.73;;
74855;SDS011;63407;53.018;8.690;2022-09-24T04:58:37;0.80;;;0.70;;
74855;SDS011;63407;53.018;8.690;2022-09-24T05:01:03;1.50;;;1.00;;
74855;SDS011;63407;53.018;8.690;2022-09-24T05:03:29;1.88;;;1.25;;
74855;SDS011;63407;53.018;8.690;2022-09-24T05:05:55;1.83;;;1.55;;
74855;SDS011;63407;53.018;8.690;2022-09-24T05:08:20;3.13;;;2.85;;
74855;SDS011;63407;53.018;8.690;2022-09-24T05:10:46;2.72;;;2.50;;
74855;SDS011;63407;53.018;8.690;2022-09-24T05:13:12;3.10;;;2.80;;
74855;SDS011;63407;53.018;8.690;2022-09-24T05:15:38;3.55;;;2.90;;
74855;SDS011;63407;53.018;8.690;2022-09-24T05:18:03;4.40;;;4.00;;
74855;SDS011;63407;53.018;8.690;2022-09-24T05:20:30;5.00;;;4.50;;
74855;SDS011;63407;53.018;8.690;2022-09-24T05:22:56;5.85;;;5.32;;
74855;SDS011;63407;53.018;8.690;2022-09-24T05:25:21;6.35;;;5.85;;
74855;SDS011;63407;53.018;8.690;2022-09-24T05:27:51;7.03;;;6.43;;
74855;SDS011;63407;53.018;8.690;2022-09-24T05:30:18;7.03;;;6.32;;
74855;SDS011;63407;53.018;8.690;2022-09-24T05:32:45;7.15;;;6.43;;
74855;SDS011;63407;53.018;8.690;2022-09-24T05:35:13;7.45;;;6.75;;
74855;SDS011;63407;53.018;8.690;2022-09-24T05:37:39;8.27;;;7.40;;
74855;SDS011;63407;53.018;8.690;2022-09-24T05:40:05;8.30;;;7.05;;
74855;SDS011;63407;53.018;8.690;2022-09-24T05:42:50;9.55;;;8.45;;
74855;SDS011;63407;53.018;8.690;2022-09-24T05:45:16;9.65;;;8.75;;
74855;SDS011;63407;53.018;8.690;2022-09-24T05:47:43;10.20;;;9.20;;
74855;SDS011;63407;53.018;8.690;2022-09-24T05:50:09;9.15;;;8.25;;
74855;SDS011;63407;53.018;8.690;2022-09-24T05:52:36;10.65;;;8.25;;
74855;SDS011;63407;53.018;8.690;2022-09-24T05:55:03;10.30;;;9.30;;
74855;SDS011;63407;53.018;8.690;2022-09-24T05:57:28;9.77;;;8.88;;
74855;SDS011;63407;53.018;8.690;2022-09-24T05:59:54;10.30;;;9.30;;
74855;SDS011;63407;53.018;8.690;2022-09-24T06:02:19;10.23;;;9.20;;
74855;SDS011;63407;53.018;8.690;2022-09-24T06:04:45;11.38;;;10.18;;
74855;SDS011;63407;53.018;8.690;2022-09-24T06:07:10;10.05;;;9.02;;
74855;SDS011;63407;53.018;8.690;2022-09-24T06:09:35;10.63;;;9.55;;
74855;SDS011;63407;53.018;8.690;2022-09-24T06:12:01;10.85;;;9.75;;
74855;SDS011;63407;53.018;8.690;2022-09-24T06:14:27;12.32;;;10.07;;
74855;SDS011;63407;53.018;8.690;2022-09-24T06:16:52;10.55;;;9.55;;
74855;SDS011;63407;53.018;8.690;2022-09-24T06:19:18;10.38;;;9.27;;
74855;SDS011;63407;53.018;8.690;2022-09-24T06:21:44;10.50;;;9.43;;
74855;SDS011;63407;53.018;8.690;2022-09-24T06:24:09;10.00;;;8.90;;
74855;SDS011;63407;53.018;8.690;2022-09-24T06:26:35;10.15;;;8.52;;
74855;SDS011;63407;53.018;8.690;2022-09-24T06:29:00;9.30;;;8.45;;
74855;SDS011;63407;53.018;8.690;2022-09-24T06:31:26;10.73;;;8.88;;
74855;SDS011;63407;53.018;8.690;2022-09-24T06:33:51;8.50;;;7.65;;
74855;SDS011;63407;53.018;8.690;2022-09-24T06:36:17;8.93;;;6.85;;
74855;SDS011;63407;53.018;8.690;2022-09-24T06:38:43;9.13;;;8.18;;
74855;SDS011;63407;53.018;8.690;2022-09-24T06:41:09;8.95;;;8.05;;
74855;SDS011;63407;53.018;8.690;2022-09-24T06:43:35;9.20;;;7.68;;
74855;SDS011;63407;53.018;8.690;2022-09-24T06:46:00;8.52;;;7.47;;
74855;SDS011;63407;53.018;8.690;2022-09-24T06:48:28;9.77;;;7.88;;
74855;SDS011;63407;53.018;8.690;2022-09-24T06:50:53;7.82;;;7.05;;
74855;SDS011;63407;53.018;8.690;2022-09-24T06:53:20;9.05;;;7.70;;
74855;SDS011;63407;53.018;8.690;2022-09-24T06:55:45;8.55;;;6.93;;
74855;SDS011;63407;53.018;8.690;2022-09-24T06:58:16;7.78;;;7.07;;
74855;SDS011;63407;53.018;8.690;2022-09-24T07:00:49;8.45;;;7.63;;
74855;SDS011;63407;53.018;8.690;2022-09-24T07:03:19;8.73;;;7.82;;
74855;SDS011;63407;53.018;8.690;2022-09-24T07:05:46;11.50;;;9.48;;
74855;SDS011;63407;53.018;8.690;2022-09-24T07:08:12;9.55;;;8.65;;
74855;SDS011;63407;53.018;8.690;2022-09-24T07:10:41;9.70;;;8.70;;
74855;SDS011;63407;53.018;8.690;2022-09-24T07:13:11;9.30;;;8.02;;
74855;SDS011;63407;53.018;8.690;2022-09-24T07:15:37;9.30;;;8.50;;
74855;SDS011;63407;53.018;8.690;2022-09-24T07:18:03;9.65;;;8.75;;
74855;SDS011;63407;53.018;8.690;2022-09-24T07:20:30;18.77;;;16.95;;
74855;SDS011;63407;53.018;8.690;2022-09-24T07:22:57;19.70;;;17.67;;
74855;SDS011;63407;53.018;8.690;2022-09-24T07:25:22;18.50;;;16.77;;
74855;SDS011;63407;53.018;8.690;2022-09-24T07:27:48;23.95;;;21.50;;
74855;SDS011;63407;53.018;8.690;2022-09-24T07:30:14;20.85;;;18.75;;
74855;SDS011;63407;53.018;8.690;2022-09-24T07:32:40;24.35;;;19.95;;
74855;SDS011;63407;53.018;8.690;2022-09-24T07:35:05;22.35;;;19.65;;
74855;SDS011;63407;53.018;8.690;2022-09-24T07:37:31;17.98;;;15.80;;
74855;SDS011;63407;53.018;8.690;2022-09-24T07:39:58;23.98;;;21.02;;
74855;SDS011;63407;53.018;8.690;2022-09-24T07:42:24;18.52;;;16.77;;
74855;SDS011;63407;53.018;8.690;2022-09-24T07:44:50;19.77;;;17.80;;
74855;SDS011;63407;53.018;8.690;2022-09-24T07:47:15;19.55;;;17.75;;
74855;SDS011;63407;53.018;8.690;2022-09-24T07:49:41;22.33;;;19.98;;
74855;SDS011;63407;53.018;8.690;2022-09-24T07:52:07;24.42;;;22.00;;
74855;SDS011;63407;53.018;8.690;2022-09-24T07:54:34;21.75;;;19.58;;
74855;SDS011;63407;53.018;8.690;2022-09-24T07:57:00;23.33;;;20.95;;
74855;SDS011;63407;53.018;8.690;2022-09-24T07:59:26;25.85;;;23.08;;
74855;SDS011;63407;53.018;8.690;2022-09-24T08:01:52;23.45;;;21.00;;
74855;SDS011;63407;53.018;8.690;2022-09-24T08:04:18;26.65;;;23.83;;
74855;SDS011;63407;53.018;8.690;2022-09-24T08:06:43;23.52;;;20.45;;
74855;SDS011;63407;53.018;8.690;2022-09-24T08:09:09;21.83;;;19.63;;
74855;SDS011;63407;53.018;8.690;2022-09-24T08:11:35;27.30;;;23.35;;
74855;SDS011;63407;53.018;8.690;2022-09-24T08:14:01;20.70;;;18.70;;
74855;SDS011;63407;53.018;8.690;2022-09-24T08:16:26;23.73;;;21.25;;
74855;SDS011;63407;53.018;8.690;2022-09-24T08:18:52;25.95;;;23.35;;
74855;SDS011;63407;53.018;8.690;2022-09-24T08:21:18;20.50;;;18.50;;
74855;SDS011;63407;53.018;8.690;2022-09-24T08:23:44;22.10;;;19.58;;
74855;SDS011;63407;53.018;8.690;2022-09-24T08:26:10;27.58;;;24.67;;
74855;SDS011;63407;53.018;8.690;2022-09-24T08:28:36;24.42;;;20.48;;
74855;SDS011;63407;53.018;8.690;2022-09-24T08:31:03;27.75;;;24.60;;
74855;SDS011;63407;53.018;8.690;2022-09-24T08:33:33;22.88;;;20.67;;
74855;SDS011;63407;53.018;8.690;2022-09-24T08:35:59;20.50;;;18.30;;
74855;SDS011;63407;53.018;8.690;2022-09-24T08:38:26;21.05;;;18.50;;
74855;SDS011;63407;53.018;8.690;2022-09-24T08:41:07;24.98;;;22.40;;
74855;SDS011;63407;53.018;8.690;2022-09-24T08:46:42;26.10;;;22.90;;
74855;SDS011;63407;53.018;8.690;2022-09-24T08:49:32;18.83;;;16.92;;
74855;SDS011;63407;53.018;8.690;2022-09-24T08:52:30;17.80;;;16.10;;
74855;SDS011;63407;53.018;8.690;2022-09-24T08:55:17;16.67;;;14.35;;
74855;SDS011;63407;53.018;8.690;2022-09-24T08:57:53;14.40;;;13.00;;
74855;SDS011;63407;53.018;8.690;2022-09-24T09:00:25;13.60;;;12.27;;
74855;SDS011;63407;53.018;8.690;2022-09-24T09:03:15;13.48;;;11.25;;
74855;SDS011;63407;53.018;8.690;2022-09-24T09:05:58;11.23;;;10.13;;
74855;SDS011;63407;53.018;8.690;2022-09-24T09:08:36;10.90;;;9.57;;
74855;SDS011;63407;53.018;8.690;2022-09-24T09:11:06;10.57;;;9.43;;
74855;SDS011;63407;53.018;8.690;2022-09-24T09:13:38;9.43;;;8.43;;
74855;SDS011;63407;53.018;8.690;2022-09-24T09:16:15;9.00;;;8.07;;
74855;SDS011;63407;53.018;8.690;2022-09-24T09:18:48;7.93;;;7.13;;
74855;SDS011;63407;53.018;8.690;2022-09-24T09:23:49;8.68;;;7.20;;
74855;SDS011;63407;53.018;8.690;2022-09-24T09:26:17;10.68;;;6.50;;
74855;SDS011;63407;53.018;8.690;2022-09-24T09:28:44;6.35;;;5.75;;
74855;SDS011;63407;53.018;8.690;2022-09-24T09:39:21;5.70;;;4.47;;
74855;SDS011;63407;53.018;8.690;2022-09-24T09:42:01;5.95;;;4.88;;
74855;SDS011;63407;53.018;8.690;2022-09-24T09:44:38;4.85;;;4.32;;
74855;SDS011;63407;53.018;8.690;2022-09-24T09:49:49;3.88;;;3.40;;
74855;SDS011;63407;53.018;8.690;2022-09-24T09:52:18;6.72;;;3.90;;
74855;SDS011;63407;53.018;8.690;2022-09-24T09:54:45;5.43;;;4.13;;
74855;SDS011;63407;53.018;8.690;2022-09-24T09:57:18;4.35;;;3.25;;
74855;SDS011;63407;53.018;8.690;2022-09-24T09:59:50;4.93;;;3.35;;
74855;SDS011;63407;53.018;8.690;2022-09-24T10:02:24;3.78;;;2.97;;
74855;SDS011;63407;53.018;8.690;2022-09-24T10:04:59;2.80;;;2.50;;
74855;SDS011;63407;53.018;8.690;2022-09-24T10:07:26;4.05;;;2.95;;
74855;SDS011;63407;53.018;8.690;2022-09-24T10:12:52;3.13;;;2.53;;
74855;SDS011;63407;53.018;8.690;2022-09-24T10:15:20;3.53;;;2.25;;
74855;SDS011;63407;53.018;8.690;2022-09-24T10:17:49;3.78;;;2.42;;
74855;SDS011;63407;53.018;8.690;2022-09-24T10:20:21;4.43;;;2.70;;
74855;SDS011;63407;53.018;8.690;2022-09-24T10:22:59;3.40;;;2.72;;
74855;SDS011;63407;53.018;8.690;2022-09-24T10:25:29;2.50;;;2.30;;
74855;SDS011;63407;53.018;8.690;2022-09-24T10:27:56;3.03;;;2.72;;
74855;SDS011;63407;53.018;8.690;2022-09-24T10:31:17;6.30;;;2.63;;
74855;SDS011;63407;53.018;8.690;2022-09-24T10:33:47;3.00;;;2.70;;
74855;SDS011;63407;53.018;8.690;2022-09-24T10:36:15;2.42;;;2.22;;
74855;SDS011;63407;53.018;8.690;2022-09-24T10:38:45;3.60;;;2.28;;
74855;SDS011;63407;53.018;8.690;2022-09-24T10:43:49;3.20;;;2.00;;
74855;SDS011;63407;53.018;8.690;2022-09-24T10:46:19;4.47;;;2.22;;
74855;SDS011;63407;53.018;8.690;2022-09-24T10:49:05;3.88;;;1.83;;
74855;SDS011;63407;53.018;8.690;2022-09-24T10:51:45;4.88;;;2.40;;
74855;SDS011;63407;53.018;8.690;2022-09-24T11:02:39;6.32;;;2.17;;
74855;SDS011;63407;53.018;8.690;2022-09-24T11:05:21;2.90;;;1.98;;
74855;SDS011;63407;53.018;8.690;2022-09-24T11:13:14;6.60;;;2.17;;
74855;SDS011;63407;53.018;8.690;2022-09-24T11:21:51;3.10;;;1.88;;
74855;SDS011;63407;53.018;8.690;2022-09-24T11:24:37;1.83;;;1.67;;
74855;SDS011;63407;53.018;8.690;2022-09-24T11:32:33;2.15;;;1.88;;
74855;SDS011;63407;53.018;8.690;2022-09-24T11:46:30;2.03;;;1.80;;
74855;SDS011;63407;53.018;8.690;2022-09-24T11:57:49;3.42;;;1.95;;
74855;SDS011;63407;53.018;8.690;2022-09-24T12:00:21;2.25;;;2.05;;
74855;SDS011;63407;53.018;8.690;2022-09-24T12:02:55;2.10;;;1.90;;
74855;SDS011;63407;53.018;8.690;2022-09-24T12:05:32;4.28;;;1.80;;
74855;SDS011;63407;53.018;8.690;2022-09-24T12:08:05;3.88;;;1.92;;
74855;SDS011;63407;53.018;8.690;2022-09-24T12:10:56;3.22;;;1.83;;
74855;SDS011;63407;53.018;8.690;2022-09-24T12:13:33;2.40;;;1.55;;
74855;SDS011;63407;53.018;8.690;2022-09-24T12:16:12;5.60;;;2.33;;
74855;SDS011;63407;53.018;8.690;2022-09-24T12:21:47;3.33;;;1.90;;
74855;SDS011;63407;53.018;8.690;2022-09-24T12:26:45;2.58;;;2.28;;
74855;SDS011;63407;53.018;8.690;2022-09-24T12:29:33;3.47;;;1.98;;
74855;SDS011;63407;53.018;8.690;2022-09-24T12:32:30;3.67;;;2.03;;
74855;SDS011;63407;53.018;8.690;2022-09-24T12:45:57;3.72;;;3.03;;
74855;SDS011;63407;53.018;8.690;2022-09-24T12:48:26;4.15;;;2.65;;
74855;SDS011;63407;53.018;8.690;2022-09-24T12:50:57;5.00;;;2.45;;
74855;SDS011;63407;53.018;8.690;2022-09-24T12:53:28;3.15;;;2.22;;
74855;SDS011;63407;53.018;8.690;2022-09-24T12:55:59;3.90;;;2.40;;
74855;SDS011;63407;53.018;8.690;2022-09-24T12:58:29;3.28;;;2.05;;
74855;SDS011;63407;53.018;8.690;2022-09-24T13:01:10;5.18;;;2.17;;
74855;SDS011;63407;53.018;8.690;2022-09-24T13:04:00;3.33;;;2.30;;
74855;SDS011;63407;53.018;8.690;2022-09-24T13:08:58;4.35;;;2.28;;
74855;SDS011;63407;53.018;8.690;2022-09-24T13:16:47;2.40;;;1.77;;
74855;SDS011;63407;53.018;8.690;2022-09-24T13:21:52;2.60;;;2.22;;
74855;SDS011;63407;53.018;8.690;2022-09-24T13:24:31;3.40;;;2.00;;
74855;SDS011;63407;53.018;8.690;2022-09-24T13:27:24;3.30;;;2.05;;
74855;SDS011;63407;53.018;8.690;2022-09-24T13:30:04;3.45;;;1.95;;
74855;SDS011;63407;53.018;8.690;2022-09-24T13:32:31;2.40;;;2.08;;
74855;SDS011;63407;53.018;8.690;2022-09-24T13:35:05;2.42;;;2.05;;
74855;SDS011;63407;53.018;8.690;2022-09-24T13:37:42;6.90;;;2.70;;
74855;SDS011;63407;53.018;8.690;2022-09-24T13:40:18;2.35;;;1.80;;
74855;SDS011;63407;53.018;8.690;2022-09-24T13:42:54;3.22;;;2.17;;
74855;SDS011;63407;53.018;8.690;2022-09-24T13:45:26;3.15;;;2.20;;
74855;SDS011;63407;53.018;8.690;2022-09-24T13:47:53;4.72;;;2.00;;
74855;SDS011;63407;53.018;8.690;2022-09-24T13:50:26;2.13;;;1.92;;
74855;SDS011;63407;53.018;8.690;2022-09-24T13:53:15;2.67;;;2.00;;
74855;SDS011;63407;53.018;8.690;2022-09-24T13:55:57;2.60;;;2.05;;
74855;SDS011;63407;53.018;8.690;2022-09-24T13:58:33;4.28;;;2.17;;
74855;SDS011;63407;53.018;8.690;2022-09-24T14:01:15;2.85;;;2.20;;
74855;SDS011;63407;53.018;8.690;2022-09-24T14:03:53;3.67;;;2.03;;
74855;SDS011;63407;53.018;8.690;2022-09-24T14:06:37;2.92;;;1.98;;
74855;SDS011;63407;53.018;8.690;2022-09-24T14:12:22;5.00;;;2.65;;
74855;SDS011;63407;53.018;8.690;2022-09-24T14:14:51;2.28;;;2.08;;
74855;SDS011;63407;53.018;8.690;2022-09-24T14:17:18;1.90;;;1.75;;
74855;SDS011;63407;53.018;8.690;2022-09-24T14:19:44;2.08;;;1.65;;
74855;SDS011;63407;53.018;8.690;2022-09-24T14:25:35;2.55;;;2.35;;
74855;SDS011;63407;53.018;8.690;2022-09-24T14:27:47;2.15;;;1.95;;
74855;SDS011;63407;53.018;8.690;2022-09-24T14:30:21;2.55;;;2.35;;
74855;SDS011;63407;53.018;8.690;2022-09-24T14:32:55;3.00;;;2.35;;
74855;SDS011;63407;53.018;8.690;2022-09-24T14:35:37;2.22;;;2.03;;
74855;SDS011;63407;53.018;8.690;2022-09-24T14:38:17;2.65;;;2.03;;
74855;SDS011;63407;53.018;8.690;2022-09-24T14:40:44;2.63;;;2.03;;
74855;SDS011;63407;53.018;8.690;2022-09-24T14:43:21;3.40;;;2.10;;
74855;SDS011;63407;53.018;8.690;2022-09-24T14:45:59;2.60;;;1.98;;
74855;SDS011;63407;53.018;8.690;2022-09-24T14:48:28;2.45;;;2.25;;
74855;SDS011;63407;53.018;8.690;2022-09-24T14:50:55;3.13;;;2.47;;
74855;SDS011;63407;53.018;8.690;2022-09-24T14:53:22;1.90;;;1.70;;
74855;SDS011;63407;53.018;8.690;2022-09-24T14:55:57;2.28;;;2.08;;
74855;SDS011;63407;53.018;8.690;2022-09-24T14:58:31;2.38;;;2.15;;
74855;SDS011;63407;53.018;8.690;2022-09-24T15:01:13;4.38;;;2.08;;
74855;SDS011;63407;53.018;8.690;2022-09-24T15:03:51;2.05;;;1.85;;
74855;SDS011;63407;53.018;8.690;2022-09-24T15:06:26;2.28;;;2.08;;
74855;SDS011;63407;53.018;8.690;2022-09-24T15:08:59;3.13;;;1.88;;
74855;SDS011;63407;53.018;8.690;2022-09-24T15:11:28;2.47;;;2.28;;
74855;SDS011;63407;53.018;8.690;2022-09-24T15:13:57;2.47;;;2.25;;
74855;SDS011;63407;53.018;8.690;2022-09-24T15:16:45;3.30;;;2.10;;
74855;SDS011;63407;53.018;8.690;2022-09-24T15:19:23;2.25;;;2.05;;
74855;SDS011;63407;53.018;8.690;2022-09-24T15:21:52;3.13;;;1.90;;
74855;SDS011;63407;53.018;8.690;2022-09-24T15:24:20;2.65;;;2.00;;
74855;SDS011;63407;53.018;8.690;2022-09-24T15:27:32;4.53;;;2.40;;
74855;SDS011;63407;53.018;8.690;2022-09-24T15:29:44;2.40;;;2.00;;
74855;SDS011;63407;53.018;8.690;2022-09-24T15:32:19;2.42;;;2.13;;
74855;SDS011;63407;53.018;8.690;2022-09-24T15:34:45;3.88;;;2.08;;
74855;SDS011;63407;53.018;8.690;2022-09-24T15:37:12;2.30;;;2.10;;
74855;SDS011;63407;53.018;8.690;2022-09-24T15:39:41;2.50;;;2.30;;
74855;SDS011;63407;53.018;8.690;2022-09-24T15:42:13;2.55;;;2.00;;
74855;SDS011;63407;53.018;8.690;2022-09-24T15:44:46;2.92;;;2.30;;
74855;SDS011;63407;53.018;8.690;2022-09-24T15:47:12;2.50;;;2.30;;
74855;SDS011;63407;53.018;8.690;2022-09-24T15:49:38;2.15;;;2.00;;
74855;SDS011;63407;53.018;8.690;2022-09-24T15:52:25;3.80;;;2.20;;
74855;SDS011;63407;53.018;8.690;2022-09-24T15:54:52;3.40;;;2.20;;
74855;SDS011;63407;53.018;8.690;2022-09-24T15:57:19;2.47;;;2.28;;
74855;SDS011;63407;53.018;8.690;2022-09-24T15:59:47;2.20;;;2.00;;
74855;SDS011;63407;53.018;8.690;2022-09-24T16:02:17;2.10;;;1.90;;
74855;SDS011;63407;53.018;8.690;2022-09-24T16:04:46;2.97;;;2.28;;
74855;SDS011;63407;53.018;8.690;2022-09-24T16:07:12;2.90;;;2.30;;
74855;SDS011;63407;53.018;8.690;2022-09-24T16:09:37;2.13;;;1.92;;
74855;SDS011;63407;53.018;8.690;2022-09-24T16:12:03;2.60;;;2.28;;
74855;SDS011;63407;53.018;8.690;2022-09-24T16:14:29;2.80;;;2.10;;
74855;SDS011;63407;53.018;8.690;2022-09-24T16:16:54;3.08;;;2.42;;
74855;SDS011;63407;53.018;8.690;2022-09-24T16:19:20;2.35;;;2.15;;
74855;SDS011;63407;53.018;8.690;2022-09-24T16:21:46;4.10;;;2.30;;
74855;SDS011;63407;53.018;8.690;2022-09-24T16:24:11;3.47;;;2.25;;
74855;SDS011;63407;53.018;8.690;2022-09-24T16:26:37;2.50;;;2.35;;
74855;SDS011;63407;53.018;8.690;2022-09-24T16:29:03;2.78;;;2.33;;
74855;SDS011;63407;53.018;8.690;2022-09-24T16:31:30;2.83;;;2.30;;
74855;SDS011;63407;53.018;8.690;2022-09-24T16:33:55;2.47;;;1.92;;
74855;SDS011;63407;53.018;8.690;2022-09-24T16:36:21;2.50;;;2.30;;
74855;SDS011;63407;53.018;8.690;2022-09-24T16:38:48;2.53;;;2.30;;
74855;SDS011;63407;53.018;8.690;2022-09-24T16:41:13;2.35;;;2.15;;
74855;SDS011;63407;53.018;8.690;2022-09-24T16:43:39;2.78;;;2.35;;
74855;SDS011;63407;53.018;8.690;2022-09-24T16:46:06;2.50;;;2.17;;
74855;SDS011;63407;53.018;8.690;2022-09-24T16:48:33;3.17;;;2.38;;
74855;SDS011;63407;53.018;8.690;2022-09-24T16:51:06;2.58;;;2.05;;
74855;SDS011;63407;53.018;8.690;2022-09-24T16:53:34;3.38;;;2.10;;
74855;SDS011;63407;53.018;8.690;2022-09-24T16:58:28;2.65;;;2.45;;
74855;SDS011;63407;53.018;8.690;2022-09-24T17:00:55;2.63;;;2.30;;
74855;SDS011;63407;53.018;8.690;2022-09-24T17:03:21;2.95;;;2.28;;
74855;SDS011;63407;53.018;8.690;2022-09-24T17:05:46;3.00;;;2.42;;
74855;SDS011;63407;53.018;8.690;2022-09-24T17:08:11;2.92;;;1.98;;
74855;SDS011;63407;53.018;8.690;2022-09-24T17:10:37;3.00;;;1.90;;
74855;SDS011;63407;53.018;8.690;2022-09-24T17:13:02;2.05;;;1.92;;
74855;SDS011;63407;53.018;8.690;2022-09-24T17:15:28;2.90;;;2.20;;
74855;SDS011;63407;53.018;8.690;2022-09-24T17:17:53;2.53;;;2.10;;
74855;SDS011;63407;53.018;8.690;2022-09-24T17:20:19;2.33;;;2.13;;
74855;SDS011;63407;53.018;8.690;2022-09-24T17:22:45;2.25;;;2.05;;
74855;SDS011;63407;53.018;8.690;2022-09-24T17:25:12;2.38;;;1.80;;
74855;SDS011;63407;53.018;8.690;2022-09-24T17:27:37;2.25;;;2.05;;
74855;SDS011;63407;53.018;8.690;2022-09-24T17:30:04;2.90;;;1.92;;
74855;SDS011;63407;53.018;8.690;2022-09-24T17:32:30;3.70;;;2.10;;
74855;SDS011;63407;53.018;8.690;2022-09-24T17:34:56;2.72;;;1.92;;
74855;SDS011;63407;53.018;8.690;2022-09-24T17:37:21;3.03;;;2.20;;
74855;SDS011;63407;53.018;8.690;2022-09-24T17:39:47;2.75;;;2.00;;
74855;SDS011;63407;53.018;8.690;2022-09-24T17:42:13;2.25;;;2.03;;
74855;SDS011;63407;53.018;8.690;2022-09-24T17:44:39;2.33;;;2.13;;
74855;SDS011;63407;53.018;8.690;2022-09-24T17:47:04;2.22;;;2.00;;
74855;SDS011;63407;53.018;8.690;2022-09-24T17:49:31;1.90;;;1.80;;
74855;SDS011;63407;53.018;8.690;2022-09-24T17:51:57;2.33;;;1.92;;
74855;SDS011;63407;53.018;8.690;2022-09-24T17:54:25;2.00;;;1.90;;
74855;SDS011;63407;53.018;8.690;2022-09-24T17:56:51;2.25;;;1.92;;
74855;SDS011;63407;53.018;8.690;2022-09-24T17:59:17;2.38;;;2.10;;
74855;SDS011;63407;53.018;8.690;2022-09-24T18:01:43;2.42;;;2.22;;
74855;SDS011;63407;53.018;8.690;2022-09-24T18:04:13;2.30;;;2.10;;
74855;SDS011;63407;53.018;8.690;2022-09-24T18:06:41;3.15;;;2.10;;
74855;SDS011;63407;53.018;8.690;2022-09-24T18:09:09;2.22;;;1.80;;
74855;SDS011;63407;53.018;8.690;2022-09-24T18:11:39;1.83;;;1.73;;
74855;SDS011;63407;53.018;8.690;2022-09-24T18:14:07;1.95;;;1.80;;
74855;SDS011;63407;53.018;8.690;2022-09-24T18:16:38;3.33;;;2.05;;
74855;SDS011;63407;53.018;8.690;2022-09-24T18:19:04;2.08;;;1.88;;
74855;SDS011;63407;53.018;8.690;2022-09-24T18:21:29;2.75;;;1.70;;
74855;SDS011;63407;53.018;8.690;2022-09-24T18:23:56;2.53;;;1.90;;
74855;SDS011;63407;53.018;8.690;2022-09-24T18:26:24;2.92;;;2.08;;
74855;SDS011;63407;53.018;8.690;2022-09-24T18:28:52;2.40;;;2.20;;
74855;SDS011;63407;53.018;8.690;2022-09-24T18:31:20;2.33;;;1.80;;
74855;SDS011;63407;53.018;8.690;2022-09-24T18:33:47;3.67;;;1.90;;
74855;SDS011;63407;53.018;8.690;2022-09-24T18:36:16;2.25;;;1.90;;
74855;SDS011;63407;53.018;8.690;2022-09-24T18:38:43;1.77;;;1.67;;
74855;SDS011;63407;53.018;8.690;2022-09-24T18:41:10;2.03;;;1.83;;
74855;SDS011;63407;53.018;8.690;2022-09-24T18:43:38;3.33;;;2.00;;
74855;SDS011;63407;53.018;8.690;2022-09-24T18:46:05;2.13;;;1.58;;
74855;SDS011;63407;53.018;8.690;2022-09-24T18:48:36;2.40;;;2.20;;
74855;SDS011;63407;53.018;8.690;2022-09-24T18:51:02;2.30;;;2.10;;
74855;SDS011;63407;53.018;8.690;2022-09-24T18:53:29;1.77;;;1.52;;
74855;SDS011;63407;53.018;8.690;2022-09-24T18:55:56;1.67;;;1.58;;
74855;SDS011;63407;53.018;8.690;2022-09-24T18:58:23;1.60;;;1.50;;
74855;SDS011;63407;53.018;8.690;2022-09-24T19:00:49;1.90;;;1.80;;
74855;SDS011;63407;53.018;8.690;2022-09-24T19:03:18;2.65;;;2.00;;
74855;SDS011;63407;53.018;8.690;2022-09-24T19:05:48;2.20;;;2.00;;
74855;SDS011;63407;53.018;8.690;2022-09-24T19:08:17;2.53;;;2.33;;
74855;SDS011;63407;53.018;8.690;2022-09-24T19:10:44;3.15;;;2.00;;
74855;SDS011;63407;53.018;8.690;2022-09-24T19:13:11;2.30;;;1.90;;
74855;SDS011;63407;53.018;8.690;2022-09-24T19:15:36;3.17;;;2.00;;
74855;SDS011;63407;53.018;8.690;2022-09-24T19:18:03;2.80;;;1.80;;
74855;SDS011;63407;53.018;8.690;2022-09-24T19:20:34;2.05;;;1.70;;
74855;SDS011;63407;53.018;8.690;2022-09-24T19:23:03;3.08;;;1.80;;
74855;SDS011;63407;53.018;8.690;2022-09-24T19:25:32;2.25;;;2.05;;
74855;SDS011;63407;53.018;8.690;2022-09-24T19:28:00;2.42;;;1.52;;
74855;SDS011;63407;53.018;8.690;2022-09-24T19:30:28;2.30;;;2.10;;
74855;SDS011;63407;53.018;8.690;2022-09-24T19:33:08;3.00;;;1.90;;
74855;SDS011;63407;53.018;8.690;2022-09-24T19:35:51;2.28;;;2.03;;
74855;SDS011;63407;53.018;8.690;2022-09-24T19:38:20;2.80;;;1.80;;
74855;SDS011;63407;53.018;8.690;2022-09-24T19:40:56;3.38;;;2.08;;
74855;SDS011;63407;53.018;8.690;2022-09-24T19:43:46;2.00;;;1.80;;
74855;SDS011;63407;53.018;8.690;2022-09-24T19:46:15;2.00;;;1.77;;
74855;SDS011;63407;53.018;8.690;2022-09-24T19:48:42;1.95;;;1.75;;
74855;SDS011;63407;53.018;8.690;2022-09-24T19:51:19;3.20;;;1.98;;
74855;SDS011;63407;53.018;8.690;2022-09-24T19:53:48;2.05;;;1.70;;
74855;SDS011;63407;53.018;8.690;2022-09-24T19:56:15;2.75;;;1.90;;
74855;SDS011;63407;53.018;8.690;2022-09-24T19:58:43;2.33;;;2.13;;
74855;SDS011;63407;53.018;8.690;2022-09-24T20:01:10;2.53;;;1.90;;
74855;SDS011;63407;53.018;8.690;2022-09-24T20:03:37;1.98;;;1.77;;
74855;SDS011;63407;53.018;8.690;2022-09-24T20:06:10;2.75;;;1.95;;
74855;SDS011;63407;53.018;8.690;2022-09-24T20:08:37;3.45;;;1.75;;
74855;SDS011;63407;53.018;8.690;2022-09-24T20:11:07;2.22;;;2.03;;
74855;SDS011;63407;53.018;8.690;2022-09-24T20:13:34;2.75;;;2.03;;
74855;SDS011;63407;53.018;8.690;2022-09-24T20:16:01;2.83;;;1.88;;
74855;SDS011;63407;53.018;8.690;2022-09-24T20:18:30;2.80;;;1.83;;
74855;SDS011;63407;53.018;8.690;2022-09-24T20:21:03;2.80;;;2.00;;
74855;SDS011;63407;53.018;8.690;2022-09-24T20:23:29;2.00;;;1.80;;
74855;SDS011;63407;53.018;8.690;2022-09-24T20:25:55;2.13;;;1.55;;
74855;SDS011;63407;53.018;8.690;2022-09-24T20:28:39;2.13;;;1.92;;
74855;SDS011;63407;53.018;8.690;2022-09-24T20:31:11;2.80;;;1.63;;
74855;SDS011;63407;53.018;8.690;2022-09-24T20:33:39;2.25;;;1.77;;
74855;SDS011;63407;53.018;8.690;2022-09-24T20:36:06;3.45;;;1.98;;
74855;SDS011;63407;53.018;8.690;2022-09-24T20:38:34;2.80;;;1.63;;
74855;SDS011;63407;53.018;8.690;2022-09-24T20:41:04;3.08;;;1.63;;
74855;SDS011;63407;53.018;8.690;2022-09-24T20:43:31;3.42;;;2.10;;